sensor_id;sensor_type;location;lat;lon;timestamp;pressure;altitude;pressure_sealevel;temperature;humidity
63006;BME280;53704;52.532;6.426;2023-02-12T00:01:29;103789.88;;;6.70;100.00
63006;BME280;53704;52.532;6.426;2023-02-12T00:03:56;103788.16;;;6.69;100.00
63006;BME280;53704;52.532;6.426;2023-02-12T00:06:22;103788.41;;;6.63;100.00
63006;BME280;53704;52.532;6.426;2023-02-12T00:08:52;103791.94;;;6.63;100.00
63006;BME280;53704;52.532;6.426;2023-02-12T00:11:20;103793.59;;;6.45;100.00
63006;BME280;53704;52.532;6.426;2023-02-12T00:13:46;103800.41;;;6.52;100.00
63006;BME280;53704;52.532;6.426;2023-02-12T00:16:14;103795.31;;;6.46;100.00
63006;BME280;53704;52.532;6.426;2023-02-12T00:18:40;103806.50;;;6.56;100.00
63006;BME280;53704;52.532;6.426;2023-02-12T00:21:06;103791.84;;;6.44;100.00
63006;BME280;53704;52.532;6.426;2023-02-12T00:23:35;103803.47;;;6.43;100.00
63006;BME280;53704;52.532;6.426;2023-02-12T00:26:05;103801.50;;;6.48;100.00
63006;BME280;53704;52.532;6.426;2023-02-12T00:28:31;103805.16;;;6.46;100.00
63006;BME280;53704;52.532;6.426;2023-02-12T00:30:56;103803.16;;;6.29;100.00
63006;BME280;53704;52.532;6.426;2023-02-12T00:33:21;103806.41;;;6.15;100.00
63006;BME280;53704;52.532;6.426;2023-02-12T00:35:56;103805.13;;;6.25;100.00
63006;BME280;53704;52.532;6.426;2023-02-12T00:38:22;103798.13;;;6.21;100.00
63006;BME280;53704;52.532;6.426;2023-02-12T00:40:47;103801.63;;;6.01;100.00
63006;BME280;53704;52.532;6.426;2023-02-12T00:43:13;103802.00;;;6.14;100.00
63006;BME280;53704;52.532;6.426;2023-02-12T00:45:38;103801.06;;;6.15;100.00
63006;BME280;53704;52.532;6.426;2023-02-12T00:48:04;103808.16;;;6.38;100.00
63006;BME280;53704;52.532;6.426;2023-02-12T00:50:30;103807.97;;;6.43;100.00
63006;BME280;53704;52.532;6.426;2023-02-12T00:52:55;103808.28;;;6.35;100.00
63006;BME280;53704;52.532;6.426;2023-02-12T00:55:21;103807.78;;;6.47;100.00
63006;BME280;53704;52.532;6.426;2023-02-12T00:57:46;103806.63;;;6.53;100.00
63006;BME280;53704;52.532;6.426;2023-02-12T01:00:12;103806.34;;;6.39;100.00
63006;BME280;53704;52.532;6.426;2023-02-12T01:02:38;103804.88;;;6.31;100.00
63006;BME280;53704;52.532;6.426;2023-02-12T01:05:04;103807.28;;;6.15;100.00
63006;BME280;53704;52.532;6.426;2023-02-12T01:07:29;103802.31;;;6.28;100.00
63006;BME280;53704;52.532;6.426;2023-02-12T01:09:54;103799.56;;;6.30;100.00
63006;BME280;53704;52.532;6.426;2023-02-12T01:12:20;103802.75;;;6.18;100.00
63006;BME280;53704;52.532;6.426;2023-02-12T01:14:45;103806.72;;;6.07;100.00
63006;BME280;53704;52.532;6.426;2023-02-12T01:17:11;103799.09;;;6.20;100.00
63006;BME280;53704;52.532;6.426;2023-02-12T01:19:36;103806.84;;;6.04;100.00
63006;BME280;53704;52.532;6.426;2023-02-12T01:22:02;103811.88;;;6.12;100.00
63006;BME280;53704;52.532;6.426;2023-02-12T01:24:27;103810.03;;;6.36;100.00
63006;BME280;53704;52.532;6.426;2023-02-12T01:26:53;103804.88;;;6.09;100.00
63006;BME280;53704;52.532;6.426;2023-02-12T01:29:18;103807.03;;;6.00;100.00
63006;BME280;53704;52.532;6.426;2023-02-12T01:31:43;103795.56;;;6.18;100.00
63006;BME280;53704;52.532;6.426;2023-02-12T01:34:09;103799.22;;;6.17;100.00
63006;BME280;53704;52.532;6.426;2023-02-12T01:36:36;103799.94;;;6.21;100.00
63006;BME280;53704;52.532;6.426;2023-02-12T01:39:04;103795.31;;;6.02;100.00
63006;BME280;53704;52.532;6.426;2023-02-12T01:41:42;103794.34;;;6.27;100.00
63006;BME280;53704;52.532;6.426;2023-02-12T01:44:18;103794.84;;;6.14;100.00
63006;BME280;53704;52.532;6.426;2023-02-12T01:46:52;103796.84;;;6.09;100.00
63006;BME280;53704;52.532;6.426;2023-02-12T01:49:41;103796.09;;;6.28;100.00
63006;BME280;53704;52.532;6.426;2023-02-12T01:52:16;103794.16;;;6.09;100.00
63006;BME280;53704;52.532;6.426;2023-02-12T01:54:44;103799.38;;;6.12;100.00
63006;BME280;53704;52.532;6.426;2023-02-12T01:57:12;103791.06;;;6.20;100.00
63006;BME280;53704;52.532;6.426;2023-02-12T01:59:39;103793.09;;;6.13;100.00
63006;BME280;53704;52.532;6.426;2023-02-12T02:02:06;103793.84;;;6.17;100.00
63006;BME280;53704;52.532;6.426;2023-02-12T02:04:37;103800.72;;;6.01;100.00
63006;BME280;53704;52.532;6.426;2023-02-12T02:07:05;103799.56;;;6.08;100.00
63006;BME280;53704;52.532;6.426;2023-02-12T02:09:35;103795.78;;;5.90;100.00
63006;BME280;53704;52.532;6.426;2023-02-12T02:12:00;103797.88;;;5.82;100.00
63006;BME280;53704;52.532;6.426;2023-02-12T02:14:45;103794.28;;;5.83;100.00
63006;BME280;53704;52.532;6.426;2023-02-12T02:31:07;103794.78;;;5.92;100.00
63006;BME280;53704;52.532;6.426;2023-02-12T02:36:41;103788.38;;;5.98;100.00
63006;BME280;53704;52.532;6.426;2023-02-12T02:44:28;103791.25;;;5.92;100.00
63006;BME280;53704;52.532;6.426;2023-02-12T02:46:57;103784.81;;;5.97;100.00
63006;BME280;53704;52.532;6.426;2023-02-12T02:52:23;103786.44;;;6.02;100.00
63006;BME280;53704;52.532;6.426;2023-02-12T02:54:54;103782.72;;;5.82;100.00
63006;BME280;53704;52.532;6.426;2023-02-12T02:57:28;103781.16;;;6.00;100.00
63006;BME280;53704;52.532;6.426;2023-02-12T03:00:05;103773.94;;;6.02;100.00
63006;BME280;53704;52.532;6.426;2023-02-12T03:02:35;103780.22;;;6.23;100.00
63006;BME280;53704;52.532;6.426;2023-02-12T03:05:07;103778.25;;;6.06;100.00
63006;BME280;53704;52.532;6.426;2023-02-12T03:07:37;103771.66;;;5.91;100.00
63006;BME280;53704;52.532;6.426;2023-02-12T03:10:16;103778.06;;;6.11;100.00
63006;BME280;53704;52.532;6.426;2023-02-12T03:17:44;103768.22;;;6.11;100.00
63006;BME280;53704;52.532;6.426;2023-02-12T03:20:23;103768.16;;;6.13;100.00
63006;BME280;53704;52.532;6.426;2023-02-12T03:23:11;103770.28;;;5.81;100.00
63006;BME280;53704;52.532;6.426;2023-02-12T03:26:21;103765.22;;;5.97;100.00
63006;BME280;53704;52.532;6.426;2023-02-12T03:28:45;103773.75;;;6.29;100.00
63006;BME280;53704;52.532;6.426;2023-02-12T03:41:58;103767.31;;;5.89;100.00
63006;BME280;53704;52.532;6.426;2023-02-12T03:44:46;103777.44;;;6.04;100.00
63006;BME280;53704;52.532;6.426;2023-02-12T03:47:35;103775.69;;;6.03;100.00
63006;BME280;53704;52.532;6.426;2023-02-12T03:52:41;103769.72;;;5.96;100.00
63006;BME280;53704;52.532;6.426;2023-02-12T03:55:08;103776.00;;;5.94;100.00
63006;BME280;53704;52.532;6.426;2023-02-12T03:57:39;103789.28;;;5.73;100.00
63006;BME280;53704;52.532;6.426;2023-02-12T04:00:13;103784.53;;;5.58;100.00
63006;BME280;53704;52.532;6.426;2023-02-12T04:02:41;103786.75;;;5.47;100.00
63006;BME280;53704;52.532;6.426;2023-02-12T04:05:07;103783.59;;;5.83;100.00
63006;BME280;53704;52.532;6.426;2023-02-12T04:07:35;103785.22;;;5.87;100.00
63006;BME280;53704;52.532;6.426;2023-02-12T04:10:01;103782.41;;;5.44;100.00
63006;BME280;53704;52.532;6.426;2023-02-12T04:12:56;103787.38;;;5.53;100.00
63006;BME280;53704;52.532;6.426;2023-02-12T04:15:55;103793.50;;;5.57;100.00
63006;BME280;53704;52.532;6.426;2023-02-12T04:18:35;103805.34;;;5.50;100.00
63006;BME280;53704;52.532;6.426;2023-02-12T04:21:11;103805.91;;;5.58;100.00
63006;BME280;53704;52.532;6.426;2023-02-12T04:26:25;103805.00;;;5.59;100.00
63006;BME280;53704;52.532;6.426;2023-02-12T04:29:13;103810.56;;;5.53;100.00
63006;BME280;53704;52.532;6.426;2023-02-12T04:36:49;103822.41;;;5.22;100.00
63006;BME280;53704;52.532;6.426;2023-02-12T04:39:21;103832.19;;;4.96;100.00
63006;BME280;53704;52.532;6.426;2023-02-12T04:41:48;103835.63;;;5.25;100.00
63006;BME280;53704;52.532;6.426;2023-02-12T04:44:16;103834.69;;;5.26;100.00
63006;BME280;53704;52.532;6.426;2023-02-12T04:46:41;103831.75;;;5.34;100.00
63006;BME280;53704;52.532;6.426;2023-02-12T04:49:12;103835.16;;;5.37;100.00
63006;BME280;53704;52.532;6.426;2023-02-12T04:51:38;103832.41;;;5.64;100.00
63006;BME280;53704;52.532;6.426;2023-02-12T04:54:04;103830.97;;;5.55;100.00
63006;BME280;53704;52.532;6.426;2023-02-12T04:56:29;103830.41;;;5.22;100.00
63006;BME280;53704;52.532;6.426;2023-02-12T04:58:54;103827.78;;;5.20;100.00
63006;BME280;53704;52.532;6.426;2023-02-12T05:01:22;103824.69;;;5.31;100.00
63006;BME280;53704;52.532;6.426;2023-02-12T05:03:48;103828.06;;;5.38;100.00
63006;BME280;53704;52.532;6.426;2023-02-12T05:06:13;103834.94;;;5.43;100.00
63006;BME280;53704;52.532;6.426;2023-02-12T05:08:38;103828.84;;;5.40;100.00
63006;BME280;53704;52.532;6.426;2023-02-12T05:11:05;103825.97;;;5.21;100.00
63006;BME280;53704;52.532;6.426;2023-02-12T05:13:31;103836.72;;;4.94;100.00
63006;BME280;53704;52.532;6.426;2023-02-12T05:15:57;103828.53;;;5.24;100.00
63006;BME280;53704;52.532;6.426;2023-02-12T05:18:22;103831.06;;;5.29;100.00
63006;BME280;53704;52.532;6.426;2023-02-12T05:20:55;103825.88;;;5.24;100.00
63006;BME280;53704;52.532;6.426;2023-02-12T05:23:21;103833.97;;;4.96;100.00
63006;BME280;53704;52.532;6.426;2023-02-12T05:25:47;103827.78;;;5.20;100.00
63006;BME280;53704;52.532;6.426;2023-02-12T05:28:12;103835.28;;;5.09;100.00
63006;BME280;53704;52.532;6.426;2023-02-12T05:30:37;103831.44;;;5.18;100.00
63006;BME280;53704;52.532;6.426;2023-02-12T05:33:03;103844.28;;;5.06;100.00
63006;BME280;53704;52.532;6.426;2023-02-12T05:35:28;103829.09;;;5.08;100.00
63006;BME280;53704;52.532;6.426;2023-02-12T05:37:54;103829.41;;;5.24;100.00
63006;BME280;53704;52.532;6.426;2023-02-12T05:40:19;103826.91;;;5.20;100.00
63006;BME280;53704;52.532;6.426;2023-02-12T05:42:44;103831.22;;;5.24;100.00
63006;BME280;53704;52.532;6.426;2023-02-12T05:45:10;103831.28;;;5.22;100.00
63006;BME280;53704;52.532;6.426;2023-02-12T05:47:35;103826.19;;;5.15;100.00
63006;BME280;53704;52.532;6.426;2023-02-12T05:50:01;103833.56;;;5.33;100.00
63006;BME280;53704;52.532;6.426;2023-02-12T05:52:26;103834.84;;;5.21;100.00
63006;BME280;53704;52.532;6.426;2023-02-12T05:54:52;103832.41;;;5.15;100.00
63006;BME280;53704;52.532;6.426;2023-02-12T05:57:17;103845.06;;;5.10;100.00
63006;BME280;53704;52.532;6.426;2023-02-12T05:59:43;103841.31;;;5.16;100.00
63006;BME280;53704;52.532;6.426;2023-02-12T06:02:08;103840.97;;;5.25;100.00
63006;BME280;53704;52.532;6.426;2023-02-12T06:04:34;103847.50;;;5.16;100.00
63006;BME280;53704;52.532;6.426;2023-02-12T06:06:59;103840.28;;;5.43;100.00
63006;BME280;53704;52.532;6.426;2023-02-12T06:09:25;103834.38;;;5.35;100.00
63006;BME280;53704;52.532;6.426;2023-02-12T06:11:50;103842.81;;;5.23;100.00
63006;BME280;53704;52.532;6.426;2023-02-12T06:14:18;103848.00;;;5.28;100.00
63006;BME280;53704;52.532;6.426;2023-02-12T06:16:45;103851.63;;;5.27;100.00
63006;BME280;53704;52.532;6.426;2023-02-12T06:19:11;103853.38;;;5.26;100.00
63006;BME280;53704;52.532;6.426;2023-02-12T06:21:37;103845.22;;;5.31;100.00
63006;BME280;53704;52.532;6.426;2023-02-12T06:24:02;103853.59;;;5.20;100.00
63006;BME280;53704;52.532;6.426;2023-02-12T06:26:29;103851.31;;;5.34;100.00
63006;BME280;53704;52.532;6.426;2023-02-12T06:28:54;103856.59;;;5.11;100.00
63006;BME280;53704;52.532;6.426;2023-02-12T06:33:51;103845.97;;;5.34;100.00
63006;BME280;53704;52.532;6.426;2023-02-12T06:36:17;103848.31;;;4.93;100.00
63006;BME280;53704;52.532;6.426;2023-02-12T06:38:43;103860.31;;;5.06;100.00
63006;BME280;53704;52.532;6.426;2023-02-12T06:41:08;103856.53;;;5.12;100.00
63006;BME280;53704;52.532;6.426;2023-02-12T06:43:34;103855.03;;;5.30;100.00
63006;BME280;53704;52.532;6.426;2023-02-12T06:46:00;103851.63;;;5.50;100.00
63006;BME280;53704;52.532;6.426;2023-02-12T06:48:26;103860.00;;;5.41;100.00
63006;BME280;53704;52.532;6.426;2023-02-12T06:50:52;103854.81;;;5.61;100.00
63006;BME280;53704;52.532;6.426;2023-02-12T06:53:17;103856.13;;;5.24;100.00
63006;BME280;53704;52.532;6.426;2023-02-12T06:55:43;103865.34;;;5.41;100.00
63006;BME280;53704;52.532;6.426;2023-02-12T06:58:08;103866.91;;;5.21;100.00
63006;BME280;53704;52.532;6.426;2023-02-12T07:00:34;103877.16;;;5.34;100.00
63006;BME280;53704;52.532;6.426;2023-02-12T07:02:59;103867.00;;;5.43;100.00
63006;BME280;53704;52.532;6.426;2023-02-12T07:05:24;103871.22;;;5.51;100.00
63006;BME280;53704;52.532;6.426;2023-02-12T07:07:50;103874.06;;;5.46;100.00
63006;BME280;53704;52.532;6.426;2023-02-12T07:10:16;103866.97;;;5.45;100.00
63006;BME280;53704;52.532;6.426;2023-02-12T07:12:42;103864.44;;;5.40;100.00
63006;BME280;53704;52.532;6.426;2023-02-12T07:15:07;103869.31;;;5.54;100.00
63006;BME280;53704;52.532;6.426;2023-02-12T07:17:33;103882.88;;;5.23;100.00
63006;BME280;53704;52.532;6.426;2023-02-12T07:19:58;103879.78;;;5.35;100.00
63006;BME280;53704;52.532;6.426;2023-02-12T07:22:24;103879.41;;;5.46;100.00
63006;BME280;53704;52.532;6.426;2023-02-12T07:24:49;103876.47;;;5.54;100.00
63006;BME280;53704;52.532;6.426;2023-02-12T07:27:16;103883.88;;;5.46;100.00
63006;BME280;53704;52.532;6.426;2023-02-12T07:29:41;103892.97;;;5.40;100.00
63006;BME280;53704;52.532;6.426;2023-02-12T07:32:07;103895.28;;;5.51;100.00
63006;BME280;53704;52.532;6.426;2023-02-12T07:34:32;103899.94;;;5.69;100.00
63006;BME280;53704;52.532;6.426;2023-02-12T07:36:58;103894.47;;;5.72;100.00
63006;BME280;53704;52.532;6.426;2023-02-12T07:39:23;103898.25;;;5.67;100.00
63006;BME280;53704;52.532;6.426;2023-02-12T07:41:49;103900.19;;;5.87;100.00
63006;BME280;53704;52.532;6.426;2023-02-12T07:44:14;103902.69;;;5.68;100.00
63006;BME280;53704;52.532;6.426;2023-02-12T07:46:44;103911.19;;;5.54;100.00
63006;BME280;53704;52.532;6.426;2023-02-12T07:49:19;103907.47;;;5.58;100.00
63006;BME280;53704;52.532;6.426;2023-02-12T07:51:45;103906.28;;;5.67;100.00
63006;BME280;53704;52.532;6.426;2023-02-12T07:54:11;103905.13;;;5.49;100.00
63006;BME280;53704;52.532;6.426;2023-02-12T07:56:38;103918.16;;;5.58;100.00
63006;BME280;53704;52.532;6.426;2023-02-12T07:59:06;103916.94;;;5.92;100.00
63006;BME280;53704;52.532;6.426;2023-02-12T08:01:34;103924.81;;;5.71;100.00
63006;BME280;53704;52.532;6.426;2023-02-12T08:04:03;103918.41;;;5.75;100.00
63006;BME280;53704;52.532;6.426;2023-02-12T08:06:31;103923.34;;;5.62;100.00
63006;BME280;53704;52.532;6.426;2023-02-12T08:08:59;103929.06;;;5.77;100.00
63006;BME280;53704;52.532;6.426;2023-02-12T08:11:26;103930.63;;;5.83;100.00
63006;BME280;53704;52.532;6.426;2023-02-12T08:13:52;103934.13;;;5.85;100.00
63006;BME280;53704;52.532;6.426;2023-02-12T08:16:23;103942.22;;;5.58;100.00
63006;BME280;53704;52.532;6.426;2023-02-12T08:18:49;103947.41;;;5.62;100.00
63006;BME280;53704;52.532;6.426;2023-02-12T08:21:17;103942.66;;;5.94;100.00
63006;BME280;53704;52.532;6.426;2023-02-12T08:23:43;103942.09;;;5.86;100.00
63006;BME280;53704;52.532;6.426;2023-02-12T08:26:23;103944.94;;;6.07;100.00
63006;BME280;53704;52.532;6.426;2023-02-12T08:29:05;103952.19;;;5.78;100.00
63006;BME280;53704;52.532;6.426;2023-02-12T08:31:41;103941.06;;;5.90;100.00
63006;BME280;53704;52.532;6.426;2023-02-12T08:34:20;103946.69;;;5.83;100.00
63006;BME280;53704;52.532;6.426;2023-02-12T08:36:47;103954.06;;;5.76;100.00
63006;BME280;53704;52.532;6.426;2023-02-12T08:39:14;103961.59;;;5.65;100.00
63006;BME280;53704;52.532;6.426;2023-02-12T08:41:39;103963.47;;;5.61;100.00
63006;BME280;53704;52.532;6.426;2023-02-12T08:44:06;103959.66;;;5.93;100.00
63006;BME280;53704;52.532;6.426;2023-02-12T08:46:34;103959.53;;;5.98;100.00
63006;BME280;53704;52.532;6.426;2023-02-12T08:49:04;103960.59;;;5.92;100.00
63006;BME280;53704;52.532;6.426;2023-02-12T08:51:32;103966.91;;;5.90;100.00
63006;BME280;53704;52.532;6.426;2023-02-12T08:53:59;103970.75;;;5.83;100.00
63006;BME280;53704;52.532;6.426;2023-02-12T08:56:27;103970.97;;;6.02;100.00
63006;BME280;53704;52.532;6.426;2023-02-12T08:58:55;103986.28;;;5.98;100.00
63006;BME280;53704;52.532;6.426;2023-02-12T09:01:22;103984.81;;;5.88;100.00
63006;BME280;53704;52.532;6.426;2023-02-12T09:03:48;103993.59;;;5.91;100.00
63006;BME280;53704;52.532;6.426;2023-02-12T09:06:15;103984.06;;;6.09;100.00
63006;BME280;53704;52.532;6.426;2023-02-12T09:08:41;103983.28;;;6.07;100.00
63006;BME280;53704;52.532;6.426;2023-02-12T09:11:09;103981.06;;;6.19;100.00
63006;BME280;53704;52.532;6.426;2023-02-12T09:13:35;103980.81;;;6.25;100.00
63006;BME280;53704;52.532;6.426;2023-02-12T09:16:02;103978.97;;;6.27;100.00
63006;BME280;53704;52.532;6.426;2023-02-12T09:18:28;103980.16;;;6.42;100.00
63006;BME280;53704;52.532;6.426;2023-02-12T09:20:54;103985.13;;;6.29;100.00
63006;BME280;53704;52.532;6.426;2023-02-12T09:23:24;103982.84;;;6.18;100.00
63006;BME280;53704;52.532;6.426;2023-02-12T09:25:50;103990.88;;;6.42;100.00
63006;BME280;53704;52.532;6.426;2023-02-12T09:28:15;103995.63;;;6.57;100.00
63006;BME280;53704;52.532;6.426;2023-02-12T09:30:40;103983.88;;;6.61;100.00
63006;BME280;53704;52.532;6.426;2023-02-12T09:33:07;103993.13;;;6.52;100.00
63006;BME280;53704;52.532;6.426;2023-02-12T09:35:34;103987.78;;;6.52;100.00
63006;BME280;53704;52.532;6.426;2023-02-12T09:38:00;103988.53;;;6.56;100.00
63006;BME280;53704;52.532;6.426;2023-02-12T09:43:19;103992.84;;;6.60;100.00
63006;BME280;53704;52.532;6.426;2023-02-12T09:46:00;103988.78;;;6.50;100.00
63006;BME280;53704;52.532;6.426;2023-02-12T09:48:53;103996.38;;;6.61;100.00
63006;BME280;53704;52.532;6.426;2023-02-12T09:51:24;103985.03;;;6.54;100.00
63006;BME280;53704;52.532;6.426;2023-02-12T09:54:32;103983.00;;;6.61;100.00
63006;BME280;53704;52.532;6.426;2023-02-12T09:56:52;103980.56;;;6.77;100.00
63006;BME280;53704;52.532;6.426;2023-02-12T09:59:45;103977.78;;;6.80;100.00
63006;BME280;53704;52.532;6.426;2023-02-12T10:02:18;103976.25;;;6.96;100.00
63006;BME280;53704;52.532;6.426;2023-02-12T10:04:45;103983.97;;;7.04;100.00
63006;BME280;53704;52.532;6.426;2023-02-12T10:12:50;103980.38;;;7.25;100.00
63006;BME280;53704;52.532;6.426;2023-02-12T10:15:51;103978.38;;;7.31;100.00
63006;BME280;53704;52.532;6.426;2023-02-12T10:21:29;103973.16;;;7.28;100.00
63006;BME280;53704;52.532;6.426;2023-02-12T10:27:13;103986.84;;;7.63;100.00
63006;BME280;53704;52.532;6.426;2023-02-12T10:29:40;103980.97;;;7.75;100.00
63006;BME280;53704;52.532;6.426;2023-02-12T10:32:13;103975.78;;;7.50;100.00
63006;BME280;53704;52.532;6.426;2023-02-12T10:34:41;103977.97;;;7.60;100.00
63006;BME280;53704;52.532;6.426;2023-02-12T10:39:42;103976.06;;;7.64;100.00
63006;BME280;53704;52.532;6.426;2023-02-12T10:42:20;103977.38;;;7.74;100.00
63006;BME280;53704;52.532;6.426;2023-02-12T10:44:49;103981.88;;;7.94;100.00
63006;BME280;53704;52.532;6.426;2023-02-12T10:47:23;103982.59;;;7.98;100.00
63006;BME280;53704;52.532;6.426;2023-02-12T10:49:55;103981.66;;;7.99;100.00
63006;BME280;53704;52.532;6.426;2023-02-12T10:52:38;103988.09;;;7.95;100.00
63006;BME280;53704;52.532;6.426;2023-02-12T10:55:29;103987.69;;;8.04;100.00
63006;BME280;53704;52.532;6.426;2023-02-12T10:57:55;103986.41;;;8.13;100.00
63006;BME280;53704;52.532;6.426;2023-02-12T11:05:40;103981.03;;;8.13;100.00
63006;BME280;53704;52.532;6.426;2023-02-12T11:08:06;103978.41;;;8.11;100.00
63006;BME280;53704;52.532;6.426;2023-02-12T11:10:41;103973.28;;;8.26;100.00
63006;BME280;53704;52.532;6.426;2023-02-12T11:13:23;103981.69;;;8.18;100.00
63006;BME280;53704;52.532;6.426;2023-02-12T11:15:49;103967.38;;;8.57;100.00
63006;BME280;53704;52.532;6.426;2023-02-12T11:18:29;103977.00;;;8.03;100.00
63006;BME280;53704;52.532;6.426;2023-02-12T11:21:04;103973.41;;;8.43;100.00
63006;BME280;53704;52.532;6.426;2023-02-12T11:31:31;103960.59;;;8.67;100.00
63006;BME280;53704;52.532;6.426;2023-02-12T11:36:32;103969.28;;;8.73;100.00
63006;BME280;53704;52.532;6.426;2023-02-12T11:38:59;103963.66;;;8.96;100.00
63006;BME280;53704;52.532;6.426;2023-02-12T11:41:36;103969.63;;;9.03;100.00
63006;BME280;53704;52.532;6.426;2023-02-12T11:44:10;103958.91;;;8.84;100.00
63006;BME280;53704;52.532;6.426;2023-02-12T11:46:37;103951.91;;;8.62;100.00
63006;BME280;53704;52.532;6.426;2023-02-12T11:49:05;103956.84;;;8.72;100.00
63006;BME280;53704;52.532;6.426;2023-02-12T11:51:35;103955.28;;;9.02;100.00
63006;BME280;53704;52.532;6.426;2023-02-12T11:54:03;103952.94;;;9.14;100.00
63006;BME280;53704;52.532;6.426;2023-02-12T11:56:45;103955.13;;;8.88;100.00
63006;BME280;53704;52.532;6.426;2023-02-12T11:59:34;103951.22;;;9.30;100.00
63006;BME280;53704;52.532;6.426;2023-02-12T12:02:13;103943.06;;;9.14;100.00
63006;BME280;53704;52.532;6.426;2023-02-12T12:04:42;103946.31;;;9.03;100.00
63006;BME280;53704;52.532;6.426;2023-02-12T12:07:27;103943.16;;;9.13;100.00
63006;BME280;53704;52.532;6.426;2023-02-12T12:10:00;103940.16;;;9.36;100.00
63006;BME280;53704;52.532;6.426;2023-02-12T12:12:41;103938.09;;;9.24;100.00
63006;BME280;53704;52.532;6.426;2023-02-12T12:15:15;103941.56;;;9.26;100.00
63006;BME280;53704;52.532;6.426;2023-02-12T12:18:24;103938.16;;;9.05;100.00
63006;BME280;53704;52.532;6.426;2023-02-12T12:21:17;103931.19;;;9.18;100.00
63006;BME280;53704;52.532;6.426;2023-02-12T12:23:56;103927.34;;;9.24;100.00
63006;BME280;53704;52.532;6.426;2023-02-12T12:26:27;103924.25;;;9.14;100.00
63006;BME280;53704;52.532;6.426;2023-02-12T12:29:19;103930.56;;;9.31;100.00
63006;BME280;53704;52.532;6.426;2023-02-12T12:31:51;103930.81;;;9.44;100.00
63006;BME280;53704;52.532;6.426;2023-02-12T12:34:20;103924.00;;;9.54;100.00
63006;BME280;53704;52.532;6.426;2023-02-12T13:04:40;103911.44;;;9.37;100.00
63006;BME280;53704;52.532;6.426;2023-02-12T13:07:37;103904.53;;;9.49;100.00
63006;BME280;53704;52.532;6.426;2023-02-12T13:12:39;103907.97;;;9.35;100.00
63006;BME280;53704;52.532;6.426;2023-02-12T13:18:23;103891.00;;;8.80;100.00
63006;BME280;53704;52.532;6.426;2023-02-12T13:26:17;103885.91;;;9.11;100.00
63006;BME280;53704;52.532;6.426;2023-02-12T13:28:54;103884.81;;;9.15;100.00
63006;BME280;53704;52.532;6.426;2023-02-12T13:31:23;103893.75;;;9.49;100.00
63006;BME280;53704;52.532;6.426;2023-02-12T13:33:55;103890.47;;;9.44;100.00
63006;BME280;53704;52.532;6.426;2023-02-12T13:36:22;103880.16;;;9.52;100.00
63006;BME280;53704;52.532;6.426;2023-02-12T13:41:30;103881.41;;;9.62;100.00
63006;BME280;53704;52.532;6.426;2023-02-12T13:46:46;103881.91;;;9.53;100.00
63006;BME280;53704;52.532;6.426;2023-02-12T13:52:30;103885.31;;;9.39;100.00
63006;BME280;53704;52.532;6.426;2023-02-12T13:55:19;103880.97;;;8.66;100.00
63006;BME280;53704;52.532;6.426;2023-02-12T14:03:15;103865.53;;;9.57;100.00
63006;BME280;53704;52.532;6.426;2023-02-12T14:05:41;103867.59;;;9.01;100.00
63006;BME280;53704;52.532;6.426;2023-02-12T14:08:06;103864.97;;;9.17;100.00
63006;BME280;53704;52.532;6.426;2023-02-12T14:11:18;103861.88;;;9.25;100.00
63006;BME280;53704;52.532;6.426;2023-02-12T14:13:52;103870.25;;;9.19;100.00
63006;BME280;53704;52.532;6.426;2023-02-12T14:27:43;103861.31;;;9.01;100.00
63006;BME280;53704;52.532;6.426;2023-02-12T14:40:51;103862.34;;;9.16;100.00
63006;BME280;53704;52.532;6.426;2023-02-12T14:45:56;103862.53;;;9.13;100.00
63006;BME280;53704;52.532;6.426;2023-02-12T14:51:37;103855.16;;;9.16;100.00
63006;BME280;53704;52.532;6.426;2023-02-12T14:54:01;103858.13;;;9.28;100.00
63006;BME280;53704;52.532;6.426;2023-02-12T14:56:32;103858.25;;;9.09;100.00
63006;BME280;53704;52.532;6.426;2023-02-12T14:59:03;103861.56;;;8.96;100.00
63006;BME280;53704;52.532;6.426;2023-02-12T15:01:33;103861.16;;;8.69;100.00
63006;BME280;53704;52.532;6.426;2023-02-12T15:04:15;103862.34;;;8.63;100.00
63006;BME280;53704;52.532;6.426;2023-02-12T15:06:50;103856.50;;;8.90;100.00
63006;BME280;53704;52.532;6.426;2023-02-12T15:09:35;103864.47;;;8.74;100.00
63006;BME280;53704;52.532;6.426;2023-02-12T15:12:34;103848.50;;;8.71;100.00
63006;BME280;53704;52.532;6.426;2023-02-12T15:17:39;103846.09;;;8.84;100.00
63006;BME280;53704;52.532;6.426;2023-02-12T15:20:32;103838.50;;;8.75;100.00
63006;BME280;53704;52.532;6.426;2023-02-12T15:22:59;103846.38;;;8.60;100.00
63006;BME280;53704;52.532;6.426;2023-02-12T15:25:31;103846.22;;;8.63;100.00
63006;BME280;53704;52.532;6.426;2023-02-12T15:28:11;103838.84;;;8.49;100.00
63006;BME280;53704;52.532;6.426;2023-02-12T15:30:42;103844.16;;;8.68;100.00
63006;BME280;53704;52.532;6.426;2023-02-12T15:33:07;103850.94;;;8.58;100.00
63006;BME280;53704;52.532;6.426;2023-02-12T15:35:36;103839.88;;;8.28;100.00
63006;BME280;53704;52.532;6.426;2023-02-12T15:38:03;103838.72;;;8.33;100.00
63006;BME280;53704;52.532;6.426;2023-02-12T15:40:32;103841.50;;;8.68;100.00
63006;BME280;53704;52.532;6.426;2023-02-12T15:42:58;103835.31;;;8.66;100.00
63006;BME280;53704;52.532;6.426;2023-02-12T15:45:35;103841.03;;;8.78;100.00
63006;BME280;53704;52.532;6.426;2023-02-12T15:48:17;103840.50;;;8.52;100.00
63006;BME280;53704;52.532;6.426;2023-02-12T15:53:40;103827.66;;;8.59;100.00
63006;BME280;53704;52.532;6.426;2023-02-12T15:56:11;103829.31;;;8.42;100.00
63006;BME280;53704;52.532;6.426;2023-02-12T15:58:52;103832.69;;;8.28;100.00
63006;BME280;53704;52.532;6.426;2023-02-12T16:01:21;103827.50;;;8.43;100.00